createdAt,value
2018-10-18T00:02:09.287Z,90.00
2018-10-18T00:04:39.200Z,89.90
2018-10-18T00:07:09.222Z,90.00
2018-10-18T00:09:39.204Z,90.00
2018-10-18T00:12:09.279Z,90.10
2018-10-18T00:14:39.237Z,90.10
2018-10-18T00:17:13.321Z,90.10
2018-10-18T00:19:43.239Z,90.20
2018-10-18T00:22:13.643Z,90.30
2018-10-18T00:24:43.652Z,90.30
2018-10-18T00:27:13.956Z,90.50
2018-10-18T00:29:43.929Z,90.50
2018-10-18T00:32:13.985Z,90.60
2018-10-18T00:34:43.864Z,90.60
2018-10-18T00:37:13.787Z,90.60
2018-10-18T00:39:43.716Z,90.60
2018-10-18T00:42:13.796Z,90.70
2018-10-18T00:44:43.691Z,90.70
2018-10-18T00:47:13.706Z,90.60
2018-10-18T00:49:43.631Z,90.50
2018-10-18T00:52:13.757Z,90.60
2018-10-18T00:54:43.774Z,90.60
2018-10-18T00:57:13.747Z,90.60
2018-10-18T00:59:43.745Z,90.50
2018-10-18T01:02:13.783Z,90.50
2018-10-18T01:04:43.657Z,90.40
2018-10-18T01:07:13.646Z,90.30
2018-10-18T01:09:43.757Z,90.30
2018-10-18T01:12:13.903Z,90.30
2018-10-18T01:14:43.684Z,90.80
2018-10-18T01:17:13.638Z,90.20
2018-10-18T01:19:43.627Z,90.70
2018-10-18T01:22:13.767Z,90.50
2018-10-18T01:24:43.628Z,90.60
2018-10-18T01:27:13.617Z,90.60
2018-10-18T01:29:43.579Z,90.60
2018-10-18T01:32:13.759Z,90.60
2018-10-18T01:34:43.590Z,90.80
2018-10-18T01:37:13.561Z,90.30
2018-10-18T01:39:43.495Z,90.40
2018-10-18T01:42:13.763Z,90.20
2018-10-18T01:44:43.549Z,90.20
2018-10-18T01:47:13.539Z,90.30
2018-10-18T01:49:43.581Z,90.30
2018-10-18T01:52:13.615Z,90.30
2018-10-18T01:54:43.494Z,90.30
2018-10-18T01:57:13.472Z,90.30
2018-10-18T01:59:43.434Z,90.30
2018-10-18T02:02:13.511Z,90.20
2018-10-18T02:04:43.308Z,90.20
2018-10-18T02:07:13.222Z,90.20
2018-10-18T02:09:43.285Z,90.30
2018-10-18T02:12:13.463Z,90.30
2018-10-18T02:14:43.159Z,90.80
2018-10-18T02:17:13.243Z,90.40
2018-10-18T02:19:43.233Z,90.40
2018-10-18T02:22:13.130Z,90.50
2018-10-18T02:24:43.037Z,90.50
2018-10-18T02:27:12.947Z,90.40
2018-10-18T02:29:43.016Z,90.40
2018-10-18T02:32:12.921Z,90.40
2018-10-18T02:34:42.871Z,90.50
2018-10-18T02:37:12.871Z,90.60
2018-10-18T02:39:42.905Z,90.50
2018-10-18T02:42:13.033Z,90.70
2018-10-18T02:44:42.871Z,90.60
2018-10-18T02:47:12.935Z,90.70
2018-10-18T02:49:42.894Z,90.70
2018-10-18T02:52:12.963Z,90.70
2018-10-18T02:54:42.966Z,90.80
2018-10-18T02:57:12.879Z,90.80
2018-10-18T02:59:42.772Z,91.00
2018-10-18T03:02:12.695Z,91.10
2018-10-18T03:04:42.687Z,91.20
2018-10-18T03:07:12.549Z,91.30
2018-10-18T03:09:42.569Z,91.40
2018-10-18T03:12:12.572Z,91.40
2018-10-18T03:14:42.471Z,91.40
2018-10-18T03:17:12.515Z,91.20
2018-10-18T03:19:42.479Z,91.00
2018-10-18T03:22:12.421Z,90.90
2018-10-18T03:24:42.550Z,90.80
2018-10-18T03:27:12.627Z,90.70
2018-10-18T03:29:42.775Z,90.60
2018-10-18T03:32:12.762Z,90.50
2018-10-18T03:34:42.711Z,90.50
2018-10-18T03:37:12.619Z,90.50
2018-10-18T03:39:42.658Z,90.40
2018-10-18T03:42:12.601Z,90.40
2018-10-18T03:44:42.535Z,90.50
2018-10-18T03:47:12.562Z,90.40
2018-10-18T03:49:42.462Z,90.40
2018-10-18T03:52:12.385Z,90.30
2018-10-18T03:54:42.442Z,90.40
2018-10-18T03:57:12.353Z,90.40
2018-10-18T03:59:42.473Z,90.40
2018-10-18T04:02:12.333Z,90.30
2018-10-18T04:04:42.320Z,90.30
2018-10-18T04:07:12.338Z,90.30
2018-10-18T04:09:42.380Z,90.40
2018-10-18T04:12:12.391Z,90.50
2018-10-18T04:14:42.290Z,90.50
2018-10-18T04:17:12.218Z,90.40
2018-10-18T04:19:42.125Z,90.60
2018-10-18T04:22:12.138Z,90.50
2018-10-18T04:24:42.154Z,90.50
2018-10-18T04:27:12.092Z,90.50
2018-10-18T04:29:42.034Z,90.50
2018-10-18T04:32:12.039Z,90.60
2018-10-18T04:34:42.056Z,90.70
2018-10-18T04:37:12.001Z,90.70
2018-10-18T04:39:41.989Z,90.70
2018-10-18T04:42:11.978Z,90.70
2018-10-18T04:44:41.991Z,90.80
2018-10-18T04:47:12.092Z,90.80
2018-10-18T04:49:41.982Z,90.60
2018-10-18T04:52:11.946Z,90.60
2018-10-18T04:54:41.935Z,90.50
2018-10-18T04:57:11.988Z,90.50
2018-10-18T04:59:41.902Z,90.70
2018-10-18T05:02:11.879Z,90.20
2018-10-18T05:05:52.895Z,90.00
2018-10-18T05:08:24.107Z,90.00
2018-10-18T05:10:54.301Z,90.10
2018-10-18T05:13:25.396Z,90.10
2018-10-18T05:15:55.502Z,90.10
2018-10-18T05:18:25.683Z,90.10
2018-10-18T05:20:55.627Z,90.10
2018-10-18T05:23:25.829Z,90.10
2018-10-18T05:25:55.806Z,90.10
2018-10-18T05:28:25.839Z,90.30
2018-10-18T05:30:55.952Z,90.30
2018-10-18T05:33:26.227Z,90.30
2018-10-18T05:35:56.195Z,90.40
2018-10-18T05:38:26.359Z,90.50
2018-10-18T05:40:56.483Z,90.30
2018-10-18T05:43:26.829Z,90.30
2018-10-18T05:45:56.869Z,90.20
2018-10-18T05:48:26.882Z,90.20
2018-10-18T05:50:56.787Z,90.20
2018-10-18T05:53:27.027Z,90.20
2018-10-18T05:55:57.001Z,90.30
2018-10-18T05:58:26.971Z,90.20
2018-10-18T06:00:57.116Z,90.20
2018-10-18T06:03:27.213Z,90.20
2018-10-18T06:05:57.220Z,90.10
2018-10-18T06:08:27.337Z,90.10
2018-10-18T06:11:14.215Z,90.10
2018-10-18T06:13:44.221Z,89.40
2018-10-18T06:16:14.485Z,90.00
2018-10-18T06:18:44.569Z,89.60
2018-10-18T06:21:14.547Z,89.70
2018-10-18T06:23:44.529Z,89.30
2018-10-18T06:26:14.632Z,89.20
2018-10-18T06:28:44.703Z,89.10
2018-10-18T06:31:14.943Z,89.10
2018-10-18T06:33:44.989Z,88.90
2018-10-18T06:36:15.153Z,88.50
2018-10-18T06:38:53.116Z,88.70
2018-10-18T06:41:23.110Z,88.90
2018-10-18T06:43:53.111Z,89.10
2018-10-18T06:46:23.217Z,89.20
2018-10-18T06:48:53.253Z,90.00
2018-10-18T06:51:23.308Z,89.30
2018-10-18T06:53:53.346Z,89.50
2018-10-18T06:56:23.329Z,89.50
2018-10-18T06:58:53.401Z,89.50
2018-10-18T07:01:23.434Z,89.60
2018-10-18T07:03:53.539Z,89.50
2018-10-18T07:06:23.621Z,89.20
2018-10-18T07:08:53.677Z,89.30
2018-10-18T07:11:23.798Z,89.20
2018-10-18T07:13:53.802Z,89.00
2018-10-18T07:16:23.864Z,88.60
2018-10-18T07:18:53.875Z,88.30
2018-10-18T07:21:24.010Z,88.20
2018-10-18T07:23:53.996Z,88.00
2018-10-18T07:26:23.990Z,88.00
2018-10-18T07:28:53.948Z,87.80
2018-10-18T07:31:23.948Z,87.70
2018-10-18T07:33:54.049Z,88.00
2018-10-18T07:36:24.360Z,88.10
2018-10-18T07:38:54.383Z,87.20
2018-10-18T07:41:24.323Z,86.80
2018-10-18T07:43:54.474Z,86.90
2018-10-18T07:46:25.091Z,87.00
2018-10-18T07:48:55.208Z,86.90
2018-10-18T07:51:25.314Z,87.30
2018-10-18T07:53:55.452Z,86.40
2018-10-18T07:56:25.508Z,85.80
2018-10-18T07:58:55.550Z,85.20
2018-10-18T08:01:25.838Z,85.40
2018-10-18T08:03:55.801Z,85.20
2018-10-18T08:06:25.812Z,85.10
2018-10-18T08:08:55.994Z,85.00
2018-10-18T08:11:26.171Z,85.10
2018-10-18T08:13:56.281Z,85.10
2018-10-18T08:16:26.266Z,85.20
2018-10-18T08:18:56.283Z,85.00
2018-10-18T08:21:26.703Z,85.20
2018-10-18T08:23:56.845Z,85.10
2018-10-18T08:26:26.974Z,85.10
2018-10-18T08:28:57.005Z,84.50
2018-10-18T08:31:27.444Z,84.30
2018-10-18T08:33:57.251Z,84.90
2018-10-18T08:36:27.298Z,84.30
2018-10-18T08:38:57.352Z,84.20
2018-10-18T08:41:27.488Z,83.70
2018-10-18T08:43:58.687Z,83.60
2018-10-18T08:46:28.526Z,83.30
2018-10-18T08:48:58.632Z,83.40
2018-10-18T08:51:28.961Z,83.40
2018-10-18T08:53:58.954Z,83.20
2018-10-18T08:56:29.136Z,83.10
2018-10-18T08:58:59.180Z,82.80
2018-10-18T09:01:29.195Z,82.70
2018-10-18T09:03:59.284Z,83.20
2018-10-18T09:06:29.284Z,82.50
2018-10-18T09:08:59.486Z,82.50
2018-10-18T09:11:29.660Z,82.60
2018-10-18T09:13:59.806Z,82.70
2018-10-18T09:16:29.779Z,82.80
2018-10-18T09:18:59.796Z,82.70
2018-10-18T09:21:29.846Z,83.00
2018-10-18T09:24:00.382Z,82.10
2018-10-18T09:26:30.441Z,82.70
2018-10-18T09:29:00.415Z,81.90
2018-10-18T09:31:30.435Z,81.80
2018-10-18T09:34:00.561Z,81.90
2018-10-18T09:36:30.811Z,81.80
2018-10-18T09:39:00.801Z,81.30
2018-10-18T09:41:30.878Z,81.80
2018-10-18T09:44:03.360Z,81.30
2018-10-18T09:46:34.626Z,80.90
2018-10-18T09:49:04.199Z,80.60
2018-10-18T09:51:33.005Z,81.10
2018-10-18T09:54:01.928Z,79.90
2018-10-18T09:56:30.809Z,79.30
2018-10-18T09:58:59.017Z,79.50
2018-10-18T10:01:32.927Z,79.20
2018-10-18T10:04:01.096Z,78.70
2018-10-18T10:06:29.153Z,78.70
2018-10-18T10:08:57.244Z,78.50
2018-10-18T10:11:25.943Z,77.90
2018-10-18T10:13:53.967Z,78.30
2018-10-18T10:16:22.074Z,77.50
2018-10-18T10:18:50.114Z,77.00
2018-10-18T10:21:18.155Z,76.40
2018-10-18T10:23:46.182Z,76.00
2018-10-18T10:26:14.251Z,76.10
2018-10-18T10:28:42.381Z,76.00
2018-10-18T10:31:10.579Z,76.00
2018-10-18T10:33:39.073Z,75.80
2018-10-18T10:36:07.438Z,75.70
2018-10-18T10:38:36.284Z,76.00
2018-10-18T10:41:05.066Z,77.10
2018-10-18T10:43:33.252Z,76.50
2018-10-18T10:46:01.652Z,77.20
2018-10-18T10:48:29.747Z,76.40
2018-10-18T10:50:57.900Z,76.20
2018-10-18T10:53:26.120Z,75.70
2018-10-18T10:55:54.252Z,75.50
2018-10-18T10:58:22.546Z,75.40
2018-10-18T11:01:09.493Z,75.20
2018-10-18T11:03:38.693Z,75.10
2018-10-18T11:06:06.900Z,75.20
2018-10-18T11:08:35.375Z,75.40
2018-10-18T11:11:03.978Z,75.50
2018-10-18T11:13:32.137Z,75.60
2018-10-18T11:16:01.569Z,75.20
2018-10-18T11:18:30.801Z,75.20
2018-10-18T11:20:59.336Z,75.00
2018-10-18T11:23:27.368Z,74.60
2018-10-18T11:25:55.420Z,74.60
2018-10-18T11:28:23.588Z,74.90
2018-10-18T11:30:51.751Z,74.50
2018-10-18T11:33:19.760Z,74.30
2018-10-18T11:35:47.982Z,74.40
2018-10-18T11:38:16.345Z,73.40
2018-10-18T11:40:44.516Z,73.30
2018-10-18T11:43:12.643Z,73.20
2018-10-18T11:45:41.006Z,72.80
2018-10-18T11:48:10.774Z,72.30
2018-10-18T11:50:39.134Z,73.00
2018-10-18T11:53:07.322Z,72.70
2018-10-18T11:55:35.909Z,72.70
2018-10-18T11:58:04.458Z,72.90
2018-10-18T12:00:32.570Z,73.00
2018-10-18T12:03:00.688Z,72.70
2018-10-18T12:05:28.940Z,72.50
2018-10-18T12:07:57.256Z,73.00
2018-10-18T12:10:25.534Z,72.10
2018-10-18T12:12:53.762Z,71.70
2018-10-18T12:15:22.040Z,71.30
2018-10-18T12:17:50.506Z,71.00
2018-10-18T12:20:18.886Z,70.40
2018-10-18T12:22:47.057Z,70.30
2018-10-18T12:25:15.397Z,69.80
2018-10-18T12:27:44.004Z,69.90
2018-10-18T12:30:13.083Z,70.00
2018-10-18T12:32:41.359Z,70.00
2018-10-18T12:35:09.603Z,70.00
2018-10-18T12:37:38.405Z,68.90
2018-10-18T12:40:11.438Z,68.50
2018-10-18T12:42:41.149Z,67.90
2018-10-18T12:45:10.783Z,68.10
2018-10-18T12:47:38.997Z,68.20
2018-10-18T12:50:07.613Z,68.10
2018-10-18T12:52:35.807Z,68.00
2018-10-18T12:55:04.291Z,67.60
2018-10-18T12:57:32.381Z,67.60
2018-10-18T13:00:00.551Z,67.50
2018-10-18T13:02:28.786Z,66.90
2018-10-18T13:04:56.737Z,66.60
2018-10-18T13:07:24.802Z,66.30
2018-10-18T13:09:53.022Z,66.60
2018-10-18T13:12:21.400Z,66.20
2018-10-18T13:14:49.573Z,66.30
2018-10-18T13:17:17.850Z,65.90
2018-10-18T13:19:46.215Z,65.20
2018-10-18T13:22:14.524Z,66.10
2018-10-18T13:24:42.756Z,64.80
2018-10-18T13:27:11.029Z,64.60
2018-10-18T13:29:39.230Z,64.00
2018-10-18T13:32:07.580Z,63.40
2018-10-18T13:34:35.791Z,62.60
2018-10-18T13:37:04.379Z,62.40
2018-10-18T13:39:32.552Z,61.70
2018-10-18T13:42:00.788Z,60.30
2018-10-18T13:44:28.952Z,59.50
2018-10-18T13:46:57.168Z,59.30
2018-10-18T13:49:25.399Z,58.90
2018-10-18T13:51:53.733Z,58.70
2018-10-18T13:54:21.953Z,58.80
2018-10-18T13:56:50.112Z,58.90
2018-10-18T14:00:31.143Z,57.70
2018-10-18T14:02:59.337Z,57.20
2018-10-18T14:05:27.805Z,57.30
2018-10-18T14:07:56.645Z,57.40
2018-10-18T14:10:24.719Z,57.30
2018-10-18T14:12:53.537Z,57.30
2018-10-18T14:15:21.820Z,57.50
2018-10-18T14:17:50.229Z,58.20
2018-10-18T14:20:18.595Z,57.90
2018-10-18T14:22:46.861Z,58.10
2018-10-18T14:25:15.237Z,57.60
2018-10-18T14:27:43.405Z,57.20
2018-10-18T14:30:14.032Z,56.60
2018-10-18T14:32:42.094Z,57.00
2018-10-18T14:35:11.593Z,56.70
2018-10-18T14:37:40.056Z,56.70
2018-10-18T14:40:11.065Z,56.70
2018-10-18T14:42:39.320Z,56.90
2018-10-18T14:45:08.430Z,56.80
2018-10-18T14:47:37.443Z,56.60
2018-10-18T14:50:12.446Z,57.00
2018-10-18T14:52:40.642Z,56.80
2018-10-18T14:55:08.747Z,56.70
2018-10-18T14:57:37.180Z,56.80
2018-10-18T15:00:08.068Z,57.00
2018-10-18T15:02:36.332Z,57.00
2018-10-18T15:05:06.067Z,57.10
2018-10-18T15:07:34.139Z,57.40
2018-10-18T15:10:02.235Z,57.40
2018-10-18T15:12:30.343Z,57.40
2018-10-18T15:14:58.377Z,57.20
2018-10-18T15:17:26.615Z,57.20
2018-10-18T15:19:54.837Z,57.30
2018-10-18T15:22:23.004Z,57.30
2018-10-18T15:24:51.455Z,57.00
2018-10-18T15:27:19.724Z,57.40
2018-10-18T15:29:48.356Z,57.50
2018-10-18T15:32:16.784Z,57.50
2018-10-18T15:34:44.840Z,57.80
2018-10-18T15:37:13.256Z,58.20
2018-10-18T15:39:41.634Z,58.40
2018-10-18T15:42:09.921Z,58.40
2018-10-18T15:44:38.153Z,58.20
2018-10-18T15:47:06.478Z,58.20
2018-10-18T15:49:34.649Z,58.30
2018-10-18T15:52:02.837Z,58.30
2018-10-18T15:54:31.096Z,58.40
2018-10-18T15:56:59.236Z,58.50
2018-10-18T15:59:27.488Z,58.70
2018-10-18T16:01:55.851Z,58.90
2018-10-18T16:04:23.926Z,59.30
2018-10-18T16:06:52.068Z,59.50
2018-10-18T16:09:20.672Z,59.80
2018-10-18T16:11:48.779Z,60.20
2018-10-18T16:14:17.105Z,61.10
2018-10-18T16:16:45.050Z,61.40
2018-10-18T16:19:13.113Z,61.50
2018-10-18T16:21:41.168Z,61.60
2018-10-18T16:24:09.460Z,61.60
2018-10-18T16:26:37.650Z,62.00
2018-10-18T16:29:05.911Z,62.40
2018-10-18T16:31:34.177Z,63.00
2018-10-18T16:34:02.275Z,63.20
2018-10-18T16:36:30.432Z,63.70
2018-10-18T16:38:58.675Z,63.10
2018-10-18T16:41:27.119Z,63.30
2018-10-18T16:43:55.367Z,63.50
2018-10-18T16:46:23.553Z,63.70
2018-10-18T16:48:51.792Z,63.80
2018-10-18T16:51:19.884Z,64.60
2018-10-18T16:53:48.017Z,63.90
2018-10-18T16:56:16.428Z,63.90
2018-10-18T16:58:44.575Z,64.10
2018-10-18T17:01:12.835Z,64.30
2018-10-18T17:03:40.894Z,64.50
2018-10-18T17:06:09.197Z,64.70
2018-10-18T17:08:37.309Z,65.20
2018-10-18T17:11:05.872Z,65.80
2018-10-18T17:13:33.977Z,66.00
2018-10-18T17:16:02.083Z,66.40
2018-10-18T17:18:30.227Z,66.40
2018-10-18T17:20:58.346Z,66.50
2018-10-18T17:23:26.487Z,66.70
2018-10-18T17:25:54.637Z,67.10
2018-10-18T17:28:22.883Z,68.30
2018-10-18T17:30:51.121Z,68.10
2018-10-18T17:33:19.331Z,68.50
2018-10-18T17:35:47.549Z,69.20
2018-10-18T17:38:15.802Z,69.10
2018-10-18T17:40:43.902Z,69.20
2018-10-18T17:43:12.113Z,69.20
2018-10-18T17:45:40.448Z,69.00
2018-10-18T17:48:08.802Z,69.10
2018-10-18T17:50:37.134Z,69.20
2018-10-18T17:53:05.449Z,69.20
2018-10-18T17:55:33.608Z,69.30
2018-10-18T17:58:01.907Z,69.20
2018-10-18T18:00:30.016Z,69.20
2018-10-18T18:02:58.125Z,70.10
2018-10-18T18:05:26.243Z,69.50
2018-10-18T18:07:54.585Z,69.50
2018-10-18T18:10:22.895Z,69.70
2018-10-18T18:12:51.183Z,69.90
2018-10-18T18:15:19.714Z,70.00
2018-10-18T18:17:47.975Z,70.20
2018-10-18T18:20:16.234Z,70.30
2018-10-18T18:22:44.593Z,70.50
2018-10-18T18:25:12.902Z,70.60
2018-10-18T18:27:41.305Z,70.60
2018-10-18T18:30:11.842Z,70.80
2018-10-18T18:32:40.201Z,70.80
2018-10-18T18:35:08.716Z,70.90
2018-10-18T18:37:37.317Z,71.10
2018-10-18T18:40:07.690Z,71.20
2018-10-18T18:42:36.439Z,71.40
2018-10-18T18:45:10.567Z,71.60
2018-10-18T18:47:39.283Z,71.60
2018-10-18T18:50:08.209Z,71.80
2018-10-18T18:52:36.496Z,72.00
2018-10-18T18:55:06.084Z,72.20
2018-10-18T18:57:34.337Z,72.60
2018-10-18T19:00:03.195Z,72.80
2018-10-18T19:02:31.489Z,72.90
2018-10-18T19:04:59.613Z,73.20
2018-10-18T19:07:27.903Z,73.40
2018-10-18T19:09:56.160Z,73.70
2018-10-18T19:12:25.167Z,74.80
2018-10-18T19:14:53.658Z,74.50
2018-10-18T19:17:21.876Z,74.50
2018-10-18T19:19:49.968Z,74.80
2018-10-18T19:22:18.112Z,75.80
2018-10-18T19:24:46.294Z,75.20
2018-10-18T19:27:14.454Z,75.30
2018-10-18T19:29:42.556Z,75.50
2018-10-18T19:32:10.757Z,75.70
2018-10-18T19:34:38.970Z,76.00
2018-10-18T19:37:07.078Z,76.40
2018-10-18T19:39:35.318Z,76.70
2018-10-18T19:42:03.507Z,77.10
2018-10-18T19:44:31.507Z,77.60
2018-10-18T19:46:59.643Z,77.90
2018-10-18T19:49:27.885Z,78.30
2018-10-18T19:51:56.065Z,78.70
2018-10-18T19:54:24.113Z,78.70
2018-10-18T19:56:52.630Z,79.20
2018-10-18T19:59:20.801Z,79.10
2018-10-18T20:01:49.202Z,79.20
2018-10-18T20:04:17.626Z,79.50
2018-10-18T20:06:45.844Z,79.70
2018-10-18T20:09:14.466Z,80.00
2018-10-18T20:11:42.763Z,79.90
2018-10-18T20:14:10.982Z,79.90
2018-10-18T20:16:39.283Z,79.90
2018-10-18T20:19:07.533Z,80.00
2018-10-18T20:21:36.408Z,80.20
2018-10-18T20:24:06.133Z,81.00
2018-10-18T20:26:34.373Z,80.80
2018-10-18T20:29:02.667Z,81.50
2018-10-18T20:31:30.875Z,81.30
2018-10-18T20:33:59.332Z,81.60
2018-10-18T20:36:27.977Z,81.80
2018-10-18T20:38:56.207Z,82.20
2018-10-18T20:41:24.432Z,82.60
2018-10-18T20:43:52.467Z,82.80
2018-10-18T20:46:20.624Z,82.90
2018-10-18T20:48:48.820Z,82.90
2018-10-18T20:51:17.091Z,82.90
2018-10-18T20:53:45.127Z,83.00
2018-10-18T20:56:13.351Z,83.00
2018-10-18T20:58:41.692Z,83.20
2018-10-18T21:01:09.933Z,83.50
2018-10-18T21:03:38.008Z,83.50
2018-10-18T21:06:07.177Z,83.80
2018-10-18T21:08:35.220Z,84.00
2018-10-18T21:11:03.444Z,84.30
2018-10-18T21:13:31.537Z,84.60
2018-10-18T21:15:59.789Z,84.70
2018-10-18T21:18:28.034Z,85.20
2018-10-18T21:20:56.393Z,85.40
2018-10-18T21:23:24.432Z,85.40
2018-10-18T21:25:52.595Z,86.30
2018-10-18T21:28:20.645Z,85.70
2018-10-18T21:30:48.909Z,85.70
2018-10-18T21:33:17.116Z,85.70
2018-10-18T21:35:45.119Z,86.00
2018-10-18T21:38:13.162Z,86.20
2018-10-18T21:40:41.231Z,86.40
2018-10-18T21:43:09.302Z,86.80
2018-10-18T21:45:38.323Z,87.00
2018-10-18T21:48:07.073Z,87.00
2018-10-18T21:50:35.324Z,87.40
2018-10-18T21:53:03.701Z,87.30
2018-10-18T21:55:31.744Z,87.20
2018-10-18T21:58:00.037Z,87.40
2018-10-18T22:00:29.569Z,87.70
2018-10-18T22:02:57.559Z,87.80
2018-10-18T22:05:25.609Z,87.70
2018-10-18T22:07:53.636Z,87.80
2018-10-18T22:10:21.667Z,88.10
2018-10-18T22:12:49.667Z,88.10
2018-10-18T22:15:17.715Z,88.40
2018-10-18T22:17:45.773Z,88.50
2018-10-18T22:20:13.821Z,88.70
2018-10-18T22:22:41.870Z,88.90
2018-10-18T22:25:09.913Z,89.20
2018-10-18T22:27:38.181Z,89.30
2018-10-18T22:30:07.244Z,90.00
2018-10-18T22:32:35.518Z,89.50
2018-10-18T22:35:03.683Z,89.30
2018-10-18T22:37:31.716Z,89.50
2018-10-18T22:39:59.763Z,89.50
2018-10-18T22:42:27.848Z,89.50
2018-10-18T22:44:55.918Z,89.60
2018-10-18T22:47:24.124Z,89.70
2018-10-18T22:49:52.247Z,90.00
2018-10-18T22:52:20.315Z,90.10
2018-10-18T22:54:48.421Z,90.20
2018-10-18T22:57:16.594Z,90.30
2018-10-18T22:59:44.735Z,90.20
2018-10-18T23:02:12.781Z,90.30
2018-10-18T23:04:40.804Z,90.50
2018-10-18T23:07:08.942Z,90.60
2018-10-18T23:09:37.015Z,90.90
2018-10-18T23:12:05.221Z,90.60
2018-10-18T23:14:33.242Z,90.60
2018-10-18T23:17:01.340Z,90.60
2018-10-18T23:19:29.346Z,90.60
2018-10-18T23:21:57.361Z,90.50
2018-10-18T23:24:25.344Z,90.60
2018-10-18T23:26:53.348Z,90.60
2018-10-18T23:29:21.594Z,90.80
2018-10-18T23:31:49.802Z,90.80
2018-10-18T23:34:17.876Z,90.90
2018-10-18T23:36:45.936Z,90.90
2018-10-18T23:39:14.002Z,91.00
2018-10-18T23:41:42.019Z,91.00
2018-10-18T23:44:10.083Z,91.00
2018-10-18T23:46:38.158Z,90.90
2018-10-18T23:49:06.158Z,91.00
2018-10-18T23:51:34.196Z,91.10
2018-10-18T23:54:02.446Z,91.20
2018-10-18T23:56:30.592Z,91.30
2018-10-18T23:58:58.820Z,91.30
